Time;durP1;ratioP1;P1;durP2;ratioP2;P2;SDS_P1;SDS_P2;PMS_P1;PMS_P2;Temp;Humidity;BMP_temperature;BMP_pressure;BME280_temperature;BME280_humidity;BME280_pressure;Samples;Min_cycle;Max_cycle;Signal;HPM_P1;HPM_P2
2021/12/29 00:00:11;;;;;;;1.48;1.02;;;6.70;99.90;;;;;;5059634;28;20085;-85
2021/12/29 00:02:36;;;;;;;1.80;1.13;;;6.70;99.90;;;;;;5076213;28;20036;-85
2021/12/29 00:05:03;;;;;;;1.95;0.77;;;6.70;99.90;;;;;;5076191;28;20081;-85
2021/12/29 00:07:29;;;;;;;0.60;0.50;;;6.70;99.90;;;;;;5066900;28;20032;-86
2021/12/29 00:09:55;;;;;;;1.15;0.63;;;6.80;99.90;;;;;;5095522;28;20076;-85
2021/12/29 00:12:25;;;;;;;2.42;1.58;;;6.70;99.90;;;;;;5079760;28;20043;-85
2021/12/29 00:14:52;;;;;;;0.70;0.65;;;6.80;99.90;;;;;;5096401;28;20519;-85
2021/12/29 00:17:18;;;;;;;1.70;0.73;;;6.80;99.90;;;;;;5078852;28;20047;-86
2021/12/29 00:19:43;;;;;;;0.50;0.35;;;6.70;99.90;;;;;;5079609;28;20057;-85
2021/12/29 00:22:09;;;;;;;1.48;1.10;;;6.70;99.90;;;;;;5079607;28;20096;-85
2021/12/29 00:24:34;;;;;;;2.28;1.42;;;6.80;99.90;;;;;;5079319;28;20039;-85
2021/12/29 00:27:00;;;;;;;3.33;1.13;;;6.70;99.90;;;;;;5078769;28;20040;-85
2021/12/29 00:29:25;;;;;;;0.80;0.77;;;6.80;99.90;;;;;;5079181;28;20035;-86
2021/12/29 00:31:51;;;;;;;5.68;1.77;;;6.70;99.90;;;;;;5079181;28;20456;-85
2021/12/29 00:34:17;;;;;;;2.05;0.90;;;6.80;99.90;;;;;;5079118;28;20047;-86
2021/12/29 00:36:42;;;;;;;2.65;0.98;;;6.80;99.90;;;;;;5078669;28;20071;-85
2021/12/29 00:39:08;;;;;;;8.13;2.38;;;6.70;99.90;;;;;;5078627;28;20075;-85
2021/12/29 00:41:34;;;;;;;2.40;1.10;;;6.70;99.90;;;;;;5078855;28;20520;-85
2021/12/29 00:43:59;;;;;;;8.15;2.88;;;6.70;99.90;;;;;;5078881;28;20035;-85
2021/12/29 00:46:25;;;;;;;3.58;1.90;;;6.80;99.90;;;;;;5078671;28;20123;-86
2021/12/29 00:48:51;;;;;;;3.45;2.03;;;6.80;99.90;;;;;;5078191;28;20424;-85
2021/12/29 00:51:17;;;;;;;4.32;2.05;;;6.80;99.90;;;;;;5075451;28;20063;-85
2021/12/29 00:53:43;;;;;;;2.15;1.15;;;6.80;99.90;;;;;;5058759;28;20477;-85
2021/12/29 00:56:08;;;;;;;0.98;0.75;;;6.80;99.90;;;;;;5058260;28;20193;-86
2021/12/29 00:58:34;;;;;;;4.57;2.08;;;6.80;99.90;;;;;;5059024;28;20043;-85
2021/12/29 01:01:02;;;;;;;5.10;1.73;;;6.70;99.90;;;;;;5076972;28;20067;-85
2021/12/29 01:03:28;;;;;;;4.95;1.80;;;6.80;99.90;;;;;;5078470;28;20032;-85
2021/12/29 01:05:54;;;;;;;2.72;1.35;;;6.80;99.90;;;;;;5078580;28;20065;-85
2021/12/29 01:08:20;;;;;;;4.15;2.03;;;6.80;99.90;;;;;;5058167;28;20032;-85
2021/12/29 01:10:46;;;;;;;1.23;0.57;;;6.80;99.90;;;;;;5057851;28;20121;-85
2021/12/29 01:13:19;;;;;;;2.30;1.02;;;6.80;99.90;;;;;;5058577;28;20032;-85
2021/12/29 01:16:36;;;;;;;2.28;0.98;;;6.80;99.90;;;;;;5058467;28;20402;-85
2021/12/29 01:18:43;;;;;;;2.85;1.30;;;6.80;99.90;;;;;;5075076;28;20054;-86
2021/12/29 01:21:10;;;;;;;4.85;1.30;;;6.80;99.90;;;;;;5074162;28;20048;-85
2021/12/29 01:23:36;;;;;;;8.88;0.95;;;6.80;99.90;;;;;;5058549;28;20542;-85
2021/12/29 01:26:02;;;;;;;0.93;0.40;;;6.80;99.90;;;;;;5074860;28;20044;-86
2021/12/29 01:28:27;;;;;;;2.60;1.52;;;6.90;99.90;;;;;;5078459;28;20088;-85
2021/12/29 01:30:54;;;;;;;0.43;0.32;;;6.90;99.90;;;;;;5078215;28;20114;-86
2021/12/29 01:33:20;;;;;;;0.40;0.40;;;6.90;99.90;;;;;;5095032;28;20050;-85
2021/12/29 01:35:45;;;;;;;2.65;0.90;;;6.90;99.90;;;;;;5095211;28;20488;-85
2021/12/29 01:38:11;;;;;;;0.20;0.20;;;6.90;99.90;;;;;;5094673;28;20116;-86
2021/12/29 01:40:38;;;;;;;2.55;1.65;;;6.90;99.90;;;;;;5064231;28;20565;-85
2021/12/29 01:43:06;;;;;;;2.22;1.55;;;7.00;99.90;;;;;;5074720;28;20048;-85
2021/12/29 01:45:32;;;;;;;0.65;0.60;;;7.00;99.90;;;;;;5058251;28;20558;-85
2021/12/29 01:47:59;;;;;;;0.80;0.50;;;7.00;99.90;;;;;;5057933;28;20040;-85
2021/12/29 01:50:25;;;;;;;1.02;0.80;;;7.00;99.90;;;;;;5087123;28;20528;-85
2021/12/29 01:52:55;;;;;;;2.25;1.10;;;7.00;99.90;;;;;;5078470;28;20093;-85
2021/12/29 01:55:25;;;;;;;1.58;1.15;;;7.10;99.90;;;;;;5078186;28;20039;-85
2021/12/29 01:57:51;;;;;;;2.08;0.88;;;7.00;99.90;;;;;;5094520;28;20047;-85
2021/12/29 02:00:20;;;;;;;6.43;2.47;;;7.10;99.90;;;;;;5094796;28;20044;-85
2021/12/29 02:02:46;;;;;;;5.88;2.08;;;7.10;99.90;;;;;;5094807;28;20044;-85
2021/12/29 02:05:12;;;;;;;4.43;1.65;;;7.10;99.90;;;;;;5077945;28;20127;-85
2021/12/29 02:07:38;;;;;;;5.85;1.92;;;7.10;99.90;;;;;;5077572;28;20071;-85
2021/12/29 02:10:05;;;;;;;6.40;2.28;;;7.20;99.90;;;;;;5077869;28;20032;-85
2021/12/29 02:12:31;;;;;;;2.55;1.63;;;7.20;99.90;;;;;;5094824;28;20042;-86
2021/12/29 02:14:56;;;;;;;3.78;1.75;;;7.30;99.90;;;;;;5078279;28;20536;-86
2021/12/29 02:17:22;;;;;;;6.32;2.55;;;7.30;99.90;;;;;;5077626;28;20040;-85
2021/12/29 02:19:48;;;;;;;2.13;1.42;;;7.40;99.90;;;;;;5078105;28;20122;-85
2021/12/29 02:25:46;;;;;;;4.82;1.92;;;7.40;99.90;;;;;;5098345;28;20130;-85
2021/12/29 02:27:54;;;;;;;2.78;1.77;;;7.40;99.90;;;;;;5094129;28;20481;-85
2021/12/29 02:30:26;;;;;;;4.60;2.08;;;7.40;99.90;;;;;;5098485;28;20107;-86
2021/12/29 02:32:59;;;;;;;2.60;1.38;;;7.50;99.90;;;;;;5098442;28;20031;-85
2021/12/29 02:35:26;;;;;;;1.77;1.00;;;7.50;99.90;;;;;;5081655;28;20118;-86
2021/12/29 02:37:51;;;;;;;2.28;1.40;;;7.50;99.90;;;;;;5080857;28;20096;-85
2021/12/29 02:40:17;;;;;;;1.25;0.68;;;7.50;99.90;;;;;;5098153;28;20103;-85
2021/12/29 02:42:43;;;;;;;2.80;1.20;;;7.50;99.90;;;;;;5081543;28;20131;-85
2021/12/29 02:45:19;;;;;;;4.88;1.73;;;7.50;99.90;;;;;;5081257;28;20137;-85
2021/12/29 02:47:45;;;;;;;0.77;0.77;;;7.50;99.90;;;;;;5080715;28;20101;-85
2021/12/29 02:50:14;;;;;;;2.42;1.48;;;7.50;99.90;;;;;;5073920;28;20491;-85
2021/12/29 02:52:40;;;;;;;2.38;1.55;;;7.50;99.90;;;;;;5060978;28;20507;-86
2021/12/29 02:55:06;;;;;;;2.78;0.82;;;7.50;99.90;;;;;;5060944;28;20159;-85
2021/12/29 02:57:31;;;;;;;2.92;1.25;;;7.40;99.90;;;;;;5091666;28;20047;-85
2021/12/29 02:59:57;;;;;;;4.68;1.30;;;7.40;99.90;;;;;;5075562;28;20044;-85
2021/12/29 03:02:23;;;;;;;3.55;2.13;;;7.40;99.90;;;;;;5060684;28;20097;-85
2021/12/29 03:04:48;;;;;;;1.95;0.98;;;7.40;99.90;;;;;;5060712;28;20086;-85
2021/12/29 03:07:14;;;;;;;0.30;0.30;;;7.40;99.90;;;;;;5060382;28;20036;-84
2021/12/29 03:09:39;;;;;;;3.25;1.65;;;7.40;99.90;;;;;;5060596;28;20393;-85
2021/12/29 03:12:05;;;;;;;2.85;0.57;;;7.40;99.90;;;;;;5060823;28;20542;-85
2021/12/29 03:14:31;;;;;;;3.85;1.85;;;7.40;99.90;;;;;;5060631;28;20098;-85
2021/12/29 03:16:57;;;;;;;2.50;1.52;;;7.40;99.90;;;;;;5059895;28;20048;-85
2021/12/29 03:19:22;;;;;;;2.60;1.70;;;7.40;99.90;;;;;;5060929;28;20032;-85
2021/12/29 03:21:48;;;;;;;2.67;1.30;;;7.50;99.90;;;;;;5097258;28;20054;-85
2021/12/29 03:24:15;;;;;;;4.03;2.05;;;7.40;99.90;;;;;;5080689;28;20051;-85
2021/12/29 03:26:41;;;;;;;0.63;0.50;;;7.40;99.90;;;;;;5069830;28;20089;-85
2021/12/29 03:29:07;;;;;;;3.40;1.58;;;7.40;99.90;;;;;;5060560;28;20036;-85
2021/12/29 03:31:37;;;;;;;1.52;0.90;;;7.40;99.90;;;;;;5059924;28;20032;-85
2021/12/29 03:34:03;;;;;;;2.40;1.30;;;7.30;99.90;;;;;;5077089;28;20508;-85
2021/12/29 03:36:30;;;;;;;3.47;1.10;;;7.40;99.90;;;;;;5059788;28;20043;-85
2021/12/29 03:38:56;;;;;;;6.00;2.42;;;7.30;99.90;;;;;;5060224;28;20075;-85
2021/12/29 03:41:24;;;;;;;2.75;1.25;;;7.30;99.90;;;;;;5060223;28;20467;-85
2021/12/29 03:43:50;;;;;;;3.65;2.05;;;7.30;99.90;;;;;;5060115;28;20074;-85
2021/12/29 03:46:16;;;;;;;2.42;1.15;;;7.30;99.90;;;;;;5076077;28;20089;-85
2021/12/29 03:48:44;;;;;;;2.13;1.10;;;7.30;99.90;;;;;;5059881;28;20044;-86
2021/12/29 03:51:10;;;;;;;3.60;1.40;;;7.30;99.90;;;;;;5076605;28;20382;-85
2021/12/29 03:53:36;;;;;;;1.17;0.98;;;7.30;99.90;;;;;;5060004;28;20032;-85
2021/12/29 03:56:03;;;;;;;1.30;0.70;;;7.30;99.90;;;;;;5059789;28;20044;-85
2021/12/29 03:58:29;;;;;;;2.50;1.63;;;7.30;99.90;;;;;;5059891;28;20040;-85
2021/12/29 04:01:03;;;;;;;2.42;1.88;;;7.30;99.90;;;;;;5059670;28;20408;-85
2021/12/29 04:03:29;;;;;;;4.07;2.28;;;7.30;99.90;;;;;;5059526;28;20040;-85
2021/12/29 04:05:55;;;;;;;0.20;0.20;;;7.30;99.90;;;;;;5059370;28;20043;-85
2021/12/29 04:08:20;;;;;;;2.22;1.48;;;7.20;99.90;;;;;;5059204;28;20068;-85
2021/12/29 04:10:46;;;;;;;1.58;1.17;;;7.20;99.90;;;;;;5059391;28;20485;-85
2021/12/29 04:13:11;;;;;;;2.78;1.30;;;7.30;99.90;;;;;;5059540;28;20552;-85
2021/12/29 04:15:38;;;;;;;1.33;0.75;;;7.30;99.90;;;;;;5059831;28;20447;-85
2021/12/29 04:18:14;;;;;;;4.80;2.03;;;7.20;99.90;;;;;;5058888;28;20040;-85
2021/12/29 04:21:01;;;;;;;4.65;2.63;;;7.30;99.90;;;;;;5076019;28;20043;-86
2021/12/29 04:23:37;;;;;;;2.80;1.50;;;7.20;99.90;;;;;;5059444;28;20447;-85
2021/12/29 04:26:04;;;;;;;4.85;2.15;;;7.20;99.90;;;;;;5059040;28;20504;-86
2021/12/29 04:28:32;;;;;;;1.85;1.10;;;7.30;99.90;;;;;;5059092;28;20044;-85
2021/12/29 04:31:02;;;;;;;8.23;2.80;;;7.30;99.90;;;;;;5075949;28;20089;-85
2021/12/29 04:33:28;;;;;;;6.70;3.25;;;7.30;99.90;;;;;;5059105;28;20040;-85
2021/12/29 04:35:54;;;;;;;3.95;2.08;;;7.30;99.90;;;;;;5062968;28;20557;-85
2021/12/29 04:38:21;;;;;;;8.65;3.40;;;7.30;99.90;;;;;;5078505;28;20044;-85
2021/12/29 04:40:49;;;;;;;5.28;2.95;;;7.30;99.90;;;;;;5078999;28;20040;-85
2021/12/29 04:43:17;;;;;;;6.30;2.88;;;7.30;99.90;;;;;;5078920;28;20075;-86
2021/12/29 04:45:43;;;;;;;5.60;2.65;;;7.30;99.90;;;;;;5076613;28;20524;-86
2021/12/29 04:48:13;;;;;;;5.85;2.75;;;7.30;99.90;;;;;;5058339;28;20064;-86
2021/12/29 04:50:40;;;;;;;4.35;2.15;;;7.30;99.90;;;;;;5058889;28;20051;-85
2021/12/29 04:53:08;;;;;;;3.42;1.92;;;7.40;99.90;;;;;;5058754;28;20401;-86
2021/12/29 04:55:34;;;;;;;5.55;2.15;;;7.30;99.90;;;;;;5058758;28;20036;-85
2021/12/29 04:58:00;;;;;;;4.30;1.77;;;7.30;99.90;;;;;;5058696;28;20397;-85
2021/12/29 05:00:28;;;;;;;3.67;1.83;;;7.40;99.90;;;;;;5058702;28;20044;-85
2021/12/29 05:02:55;;;;;;;1.48;0.95;;;7.40;99.90;;;;;;5066527;28;20040;-85
2021/12/29 05:10:39;;;;;;;1.13;0.90;;;7.30;99.90;;;;;;5074280;28;20050;-86
2021/12/29 05:13:05;;;;;;;3.45;1.80;;;7.40;99.90;;;;;;5057957;28;20481;-85
2021/12/29 05:15:31;;;;;;;1.67;1.17;;;7.30;99.90;;;;;;5074848;28;20457;-86
2021/12/29 05:17:58;;;;;;;1.50;0.93;;;7.40;99.90;;;;;;5057138;28;20047;-86
2021/12/29 05:20:28;;;;;;;1.80;1.50;;;7.40;99.90;;;;;;5057658;28;20048;-86
2021/12/29 05:22:54;;;;;;;3.75;2.28;;;7.30;99.90;;;;;;5074712;28;20044;-85
2021/12/29 05:25:20;;;;;;;2.10;1.35;;;7.40;99.90;;;;;;5074616;28;20032;-85
2021/12/29 05:27:45;;;;;;;2.38;1.55;;;7.40;99.90;;;;;;5057280;28;20032;-85
2021/12/29 05:30:11;;;;;;;4.05;1.52;;;7.40;99.90;;;;;;5060732;28;20044;-85
2021/12/29 05:32:37;;;;;;;3.10;1.17;;;7.40;99.90;;;;;;5073502;28;20122;-86
2021/12/29 05:35:03;;;;;;;2.25;1.52;;;7.30;99.90;;;;;;5090113;28;20035;-85
2021/12/29 05:37:29;;;;;;;1.27;1.02;;;7.40;99.90;;;;;;5077350;28;20036;-85
2021/12/29 05:39:55;;;;;;;3.55;2.10;;;7.40;99.90;;;;;;5094238;28;20089;-85
2021/12/29 05:42:20;;;;;;;0.93;0.70;;;7.40;99.90;;;;;;5059638;28;20040;-85
2021/12/29 05:44:46;;;;;;;6.32;2.35;;;7.40;99.90;;;;;;5075286;28;20032;-85
2021/12/29 05:47:11;;;;;;;7.13;2.58;;;7.30;99.90;;;;;;5077041;28;20032;-85
2021/12/29 05:49:37;;;;;;;2.00;1.27;;;7.40;99.90;;;;;;5094380;28;20046;-85
2021/12/29 05:52:03;;;;;;;5.45;2.72;;;7.40;99.90;;;;;;5076112;28;20078;-85
2021/12/29 05:54:28;;;;;;;3.75;1.95;;;7.30;99.90;;;;;;5057692;28;20044;-85
2021/12/29 05:56:54;;;;;;;22.55;2.92;;;7.30;99.90;;;;;;5072532;28;20041;-85
2021/12/29 05:59:20;;;;;;;4.07;1.98;;;7.40;99.90;;;;;;5061589;28;20047;-85
2021/12/29 06:01:45;;;;;;;1.65;1.17;;;7.40;99.90;;;;;;5061238;28;20090;-86
2021/12/29 06:04:45;;;;;;;1.17;0.80;;;7.30;99.90;;;;;;5061110;28;20062;-86
2021/12/29 06:07:13;;;;;;;1.90;1.17;;;7.30;99.90;;;;;;5060794;28;20036;-84
2021/12/29 06:09:39;;;;;;;1.77;0.95;;;7.30;99.90;;;;;;5090175;28;20092;-85
2021/12/29 06:12:05;;;;;;;3.40;0.95;;;7.30;99.90;;;;;;5063694;28;20039;-85
2021/12/29 06:14:30;;;;;;;2.67;1.27;;;7.30;99.90;;;;;;5061208;28;20074;-86
2021/12/29 06:16:56;;;;;;;1.38;0.90;;;7.30;99.90;;;;;;5060370;28;20550;-85
2021/12/29 06:19:21;;;;;;;2.28;1.38;;;7.30;99.90;;;;;;5067257;28;20123;-86
2021/12/29 06:21:47;;;;;;;5.03;1.25;;;7.30;99.90;;;;;;5093598;28;20043;-86
2021/12/29 06:24:13;;;;;;;2.53;1.70;;;7.30;99.90;;;;;;5075905;28;20551;-85
2021/12/29 06:26:38;;;;;;;1.27;0.73;;;7.30;99.90;;;;;;5081699;28;20027;-86
2021/12/29 06:29:04;;;;;;;4.00;1.95;;;7.30;99.90;;;;;;5080925;28;20135;-85
2021/12/29 06:31:29;;;;;;;0.45;0.45;;;7.30;99.90;;;;;;5080869;28;20032;-86
2021/12/29 06:33:55;;;;;;;0.35;0.35;;;7.30;99.90;;;;;;5080745;28;20035;-85
2021/12/29 06:36:21;;;;;;;0.73;0.68;;;7.30;99.90;;;;;;5080469;28;20047;-86
2021/12/29 06:38:46;;;;;;;3.78;1.95;;;7.30;99.90;;;;;;5083941;28;20036;-85
2021/12/29 06:41:12;;;;;;;0.45;0.43;;;7.30;99.90;;;;;;5060913;28;20040;-86
2021/12/29 06:43:38;;;;;;;5.38;1.63;;;7.30;99.90;;;;;;5064857;28;20035;-85
2021/12/29 06:46:03;;;;;;;0.47;0.47;;;7.30;99.90;;;;;;5073395;28;20063;-86
2021/12/29 06:48:29;;;;;;;0.68;0.65;;;7.30;99.90;;;;;;5080362;28;20039;-86
2021/12/29 06:50:55;;;;;;;2.72;1.70;;;7.30;99.90;;;;;;5080712;28;20039;-85
2021/12/29 06:53:20;;;;;;;6.07;2.38;;;7.40;99.90;;;;;;5097403;28;20039;-86
2021/12/29 06:55:46;;;;;;;1.00;0.90;;;7.30;99.90;;;;;;5064991;28;20094;-85
2021/12/29 06:58:11;;;;;;;0.70;0.70;;;7.30;99.90;;;;;;5059869;28;20097;-85
2021/12/29 07:00:38;;;;;;;5.80;2.53;;;7.30;99.90;;;;;;5060354;28;20039;-85
2021/12/29 07:03:04;;;;;;;7.50;1.90;;;7.30;99.90;;;;;;5060256;28;20131;-85
2021/12/29 07:05:30;;;;;;;6.68;2.15;;;7.40;99.90;;;;;;5060147;28;20123;-85
2021/12/29 07:07:56;;;;;;;6.57;0.75;;;7.30;99.90;;;;;;5062769;28;20113;-85
2021/12/29 07:10:22;;;;;;;2.53;2.05;;;7.30;99.90;;;;;;5063731;28;20039;-86
2021/12/29 07:12:48;;;;;;;0.40;0.40;;;7.30;99.90;;;;;;5060131;28;20036;-86
2021/12/29 07:15:14;;;;;;;3.08;2.40;;;7.30;99.90;;;;;;5060028;28;20062;-85
2021/12/29 07:17:40;;;;;;;0.30;0.30;;;7.40;99.90;;;;;;5085929;28;20039;-85
2021/12/29 07:20:06;;;;;;;1.05;0.82;;;7.30;99.90;;;;;;5063418;28;20036;-85
2021/12/29 07:22:32;;;;;;;0.80;0.77;;;7.30;99.90;;;;;;5059725;28;20032;-85
2021/12/29 07:24:58;;;;;;;0.10;0.10;;;7.30;99.90;;;;;;5076467;28;20036;-85
2021/12/29 07:27:23;;;;;;;1.80;1.00;;;7.30;99.90;;;;;;5059379;28;20036;-85
2021/12/29 07:29:49;;;;;;;0.20;0.20;;;7.30;99.90;;;;;;5078718;28;20040;-85
2021/12/29 07:32:15;;;;;;;0.30;0.30;;;7.40;99.90;;;;;;5075452;28;20032;-86
2021/12/29 07:34:40;;;;;;;0.30;0.30;;;7.30;99.90;;;;;;5078697;28;20032;-86
2021/12/29 07:37:06;;;;;;;0.10;0.10;;;7.30;99.90;;;;;;5067957;28;20077;-86
2021/12/29 07:39:32;;;;;;;0.65;0.50;;;7.40;99.90;;;;;;5096736;28;20122;-86
2021/12/29 07:42:04;;;;;;;0.20;0.20;;;7.30;99.90;;;;;;5079782;28;20046;-85
2021/12/29 07:44:30;;;;;;;0.47;0.35;;;7.40;99.90;;;;;;5079737;28;20092;-86
2021/12/29 07:46:58;;;;;;;1.10;1.00;;;7.40;99.90;;;;;;5078893;28;20040;-86
2021/12/29 07:49:25;;;;;;;0.30;0.30;;;7.30;99.90;;;;;;5079591;28;20069;-86
2021/12/29 07:51:51;;;;;;;1.10;0.40;;;7.40;99.90;;;;;;5096022;28;20600;-86
2021/12/29 07:54:17;;;;;;;0.73;0.63;;;7.30;99.90;;;;;;5092176;28;20480;-85
2021/12/29 07:56:43;;;;;;;2.20;0.65;;;7.40;99.90;;;;;;5072966;28;20039;-85
2021/12/29 07:59:09;;;;;;;0.82;0.47;;;7.30;99.90;;;;;;5076830;28;20527;-86
2021/12/29 08:01:35;;;;;;;0.55;0.55;;;7.40;99.90;;;;;;5066433;28;20067;-86
2021/12/29 08:04:01;;;;;;;1.30;0.80;;;7.40;99.90;;;;;;5058932;28;20497;-85
2021/12/29 08:06:27;;;;;;;0.32;0.32;;;7.40;99.90;;;;;;5058551;28;20040;-86
2021/12/29 08:08:53;;;;;;;0.30;0.30;;;7.50;99.90;;;;;;5075415;28;20123;-85
2021/12/29 08:11:19;;;;;;;0.98;0.85;;;7.40;99.90;;;;;;5075942;28;20086;-86
2021/12/29 08:13:46;;;;;;;0.30;0.30;;;7.50;99.90;;;;;;5058813;28;20032;-86
2021/12/29 08:16:12;;;;;;;0.50;0.50;;;7.50;99.90;;;;;;5058299;28;20051;-86
2021/12/29 08:18:37;;;;;;;1.15;0.75;;;7.50;99.90;;;;;;5071590;28;20036;-85
2021/12/29 08:21:03;;;;;;;2.63;1.88;;;7.50;99.90;;;;;;5069902;28;20036;-86
2021/12/29 08:23:29;;;;;;;1.92;0.85;;;7.50;99.90;;;;;;5058539;28;20085;-86
2021/12/29 08:25:54;;;;;;;4.38;0.80;;;7.50;99.90;;;;;;5075136;28;20112;-86
2021/12/29 08:28:22;;;;;;;4.00;1.33;;;7.60;99.90;;;;;;5074761;28;20115;-86
2021/12/29 08:30:48;;;;;;;0.20;0.20;;;7.50;99.90;;;;;;5058660;28;20039;-85
2021/12/29 08:33:14;;;;;;;1.73;1.08;;;7.50;99.90;;;;;;5058762;28;20562;-86
2021/12/29 08:35:40;;;;;;;1.98;0.60;;;7.50;99.90;;;;;;5058485;28;20119;-86
2021/12/29 08:38:05;;;;;;;0.80;0.52;;;7.60;99.90;;;;;;5058372;28;20122;-85
2021/12/29 08:40:31;;;;;;;1.88;0.93;;;7.60;99.90;;;;;;5058751;28;20044;-86
2021/12/29 08:42:59;;;;;;;2.63;0.95;;;7.60;99.90;;;;;;5066143;28;20035;-85
2021/12/29 08:45:26;;;;;;;6.75;1.00;;;7.70;99.90;;;;;;5073986;28;20118;-86
2021/12/29 08:47:54;;;;;;;0.43;0.43;;;7.70;99.90;;;;;;5077623;28;20040;-86
2021/12/29 08:50:20;;;;;;;2.33;1.42;;;7.70;99.90;;;;;;5075147;28;20047;-85
2021/12/29 08:52:49;;;;;;;1.83;0.75;;;7.70;99.90;;;;;;5085372;28;20044;-86
2021/12/29 08:55:15;;;;;;;0.63;0.52;;;7.70;99.90;;;;;;5078511;28;20070;-86
2021/12/29 08:57:41;;;;;;;2.00;1.00;;;7.70;99.90;;;;;;5077980;28;20078;-85
2021/12/29 09:00:10;;;;;;;0.30;0.30;;;7.80;99.90;;;;;;5095070;28;20035;-86
2021/12/29 09:02:36;;;;;;;0.88;0.85;;;7.70;99.90;;;;;;5078171;28;20035;-86
2021/12/29 09:05:01;;;;;;;1.10;0.65;;;7.70;99.90;;;;;;5073190;28;20116;-85
2021/12/29 09:07:27;;;;;;;4.43;1.00;;;7.70;99.90;;;;;;5070057;28;20377;-86
2021/12/29 09:09:52;;;;;;;3.33;1.48;;;7.70;99.90;;;;;;5073483;28;20036;-86
2021/12/29 09:12:18;;;;;;;10.23;1.60;;;7.70;99.90;;;;;;5077950;28;20032;-86
2021/12/29 09:14:45;;;;;;;11.68;1.40;;;7.70;99.90;;;;;;5094969;28;20121;-86
2021/12/29 09:17:11;;;;;;;0.90;0.77;;;7.60;99.90;;;;;;5077427;28;20079;-86
2021/12/29 09:19:40;;;;;;;0.80;0.60;;;7.70;99.90;;;;;;5059894;28;20040;-85
2021/12/29 09:22:06;;;;;;;7.53;1.88;;;7.70;99.90;;;;;;5057293;28;20036;-86
2021/12/29 09:24:31;;;;;;;0.73;0.52;;;7.70;99.90;;;;;;5057288;28;20043;-86
2021/12/29 09:26:57;;;;;;;0.30;0.30;;;7.70;99.90;;;;;;5056864;28;20040;-86
2021/12/29 09:29:23;;;;;;;0.88;0.75;;;7.70;99.90;;;;;;5069025;28;20075;-85
2021/12/29 09:31:48;;;;;;;3.72;1.92;;;7.70;99.90;;;;;;5085147;28;20038;-87
2021/12/29 09:34:14;;;;;;;1.05;0.73;;;7.70;99.90;;;;;;5058196;28;20032;-86
2021/12/29 09:36:39;;;;;;;0.65;0.35;;;7.70;99.90;;;;;;5073697;28;20048;-85
2021/12/29 09:39:05;;;;;;;0.73;0.40;;;7.70;99.90;;;;;;5057221;28;20040;-86
2021/12/29 09:41:32;;;;;;;0.30;0.30;;;7.70;99.90;;;;;;5057282;28;20121;-85
2021/12/29 09:43:58;;;;;;;1.92;1.17;;;7.70;99.90;;;;;;5061599;28;20130;-86
2021/12/29 09:46:24;;;;;;;2.30;1.23;;;7.70;99.90;;;;;;5076621;28;20204;-86
2021/12/29 09:48:51;;;;;;;1.35;0.70;;;7.70;99.90;;;;;;5061086;28;20035;-86
2021/12/29 09:51:17;;;;;;;1.27;1.17;;;7.70;99.90;;;;;;5057164;28;20043;-86
2021/12/29 09:53:44;;;;;;;0.90;0.63;;;7.70;99.90;;;;;;5073982;28;20047;-85
2021/12/29 09:56:11;;;;;;;0.10;0.10;;;7.70;99.90;;;;;;5066816;28;20439;-86
2021/12/29 09:58:39;;;;;;;0.30;0.30;;;7.70;99.90;;;;;;5077439;28;20035;-86
2021/12/29 10:01:06;;;;;;;0.20;0.20;;;7.70;99.90;;;;;;5077368;28;20036;-85
2021/12/29 10:03:33;;;;;;;0.30;0.30;;;7.80;99.90;;;;;;5094004;28;20043;-85
2021/12/29 10:06:00;;;;;;;0.47;0.47;;;7.80;99.90;;;;;;5075167;28;20126;-85
2021/12/29 10:08:32;;;;;;;0.68;0.68;;;7.90;99.90;;;;;;5085290;28;20035;-86
2021/12/29 10:11:04;;;;;;;1.63;1.00;;;7.80;99.90;;;;;;5076785;28;20054;-85
2021/12/29 10:13:34;;;;;;;2.08;0.52;;;7.80;99.90;;;;;;5093863;28;20075;-86
2021/12/29 10:16:12;;;;;;;0.40;0.40;;;7.80;99.90;;;;;;5093661;28;20077;-85
2021/12/29 10:18:41;;;;;;;0.20;0.20;;;7.90;99.90;;;;;;5071942;28;20043;-85
2021/12/29 10:21:18;;;;;;;1.00;0.77;;;7.80;99.90;;;;;;5083703;28;20398;-85
2021/12/29 10:23:46;;;;;;;1.58;1.30;;;7.80;99.90;;;;;;5075416;28;20047;-86
2021/12/29 10:26:27;;;;;;;0.73;0.47;;;7.90;99.90;;;;;;5063063;28;20047;-86
2021/12/29 10:29:01;;;;;;;2.20;1.70;;;7.90;99.90;;;;;;5094298;28;20035;-86
2021/12/29 10:31:31;;;;;;;2.05;1.52;;;7.90;99.90;;;;;;5077136;28;20492;-86
2021/12/29 10:34:00;;;;;;;0.88;0.55;;;7.90;99.90;;;;;;5070847;28;20064;-85
2021/12/29 10:36:32;;;;;;;2.75;0.40;;;8.00;99.90;;;;;;5072951;28;20443;-85
2021/12/29 10:38:58;;;;;;;0.73;0.55;;;8.00;99.90;;;;;;5065395;28;20389;-86
2021/12/29 10:41:27;;;;;;;1.98;1.20;;;8.00;99.90;;;;;;5073613;28;20032;-86
2021/12/29 10:44:05;;;;;;;6.57;2.13;;;8.10;99.90;;;;;;5061549;28;20481;-86
2021/12/29 10:46:35;;;;;;;0.60;0.52;;;8.10;99.90;;;;;;5059627;28;20405;-85
2021/12/29 10:49:06;;;;;;;0.20;0.20;;;8.10;99.90;;;;;;5065828;28;20036;-86
2021/12/29 10:51:34;;;;;;;15.63;1.45;;;8.10;99.90;;;;;;5060194;28;20039;-86
2021/12/29 10:54:12;;;;;;;0.20;0.20;;;8.10;99.90;;;;;;5060071;28;20043;-86
2021/12/29 10:56:41;;;;;;;1.77;0.95;;;8.20;99.90;;;;;;5059723;28;20048;-86
2021/12/29 10:59:23;;;;;;;2.45;0.90;;;8.20;99.90;;;;;;5059927;28;20062;-86
2021/12/29 11:01:50;;;;;;;2.55;0.57;;;8.20;99.90;;;;;;5060197;28;20558;-86
2021/12/29 11:04:17;;;;;;;0.93;0.68;;;8.30;99.90;;;;;;5063076;28;20031;-86
2021/12/29 11:06:44;;;;;;;8.10;1.45;;;8.20;99.90;;;;;;5078661;28;20039;-86
2021/12/29 11:09:11;;;;;;;0.47;0.40;;;8.30;99.90;;;;;;5075586;28;20404;-86
2021/12/29 11:11:44;;;;;;;0.10;0.10;;;8.30;99.90;;;;;;5076132;28;20668;-86
2021/12/29 11:14:17;;;;;;;0.63;0.43;;;8.30;99.90;;;;;;5082120;28;20193;-86
2021/12/29 11:16:45;;;;;;;0.55;0.38;;;8.30;99.90;;;;;;5087587;28;20039;-86
2021/12/29 11:19:18;;;;;;;2.30;1.35;;;8.30;99.90;;;;;;5079478;28;20404;-86
2021/12/29 11:21:44;;;;;;;2.65;0.80;;;8.30;99.90;;;;;;5067949;28;20044;-86
2021/12/29 11:24:20;;;;;;;0.43;0.43;;;8.30;99.90;;;;;;5059470;28;21504;-86
2021/12/29 11:26:49;;;;;;;0.52;0.52;;;8.30;99.90;;;;;;5064573;28;20040;-86
2021/12/29 11:29:17;;;;;;;0.20;0.20;;;8.40;99.90;;;;;;5059277;28;20031;-86
2021/12/29 11:31:47;;;;;;;0.73;0.40;;;8.40;99.90;;;;;;5067575;28;20047;-86
2021/12/29 11:34:19;;;;;;;1.35;1.13;;;8.30;99.90;;;;;;5075324;28;20059;-86
2021/12/29 11:37:27;;;;;;;0.43;0.40;;;8.30;99.90;;;;;;5068128;28;20165;-85
2021/12/29 11:39:54;;;;;;;0.40;0.40;;;8.30;99.90;;;;;;5059038;28;20109;-86
2021/12/29 11:42:24;;;;;;;9.48;1.42;;;8.30;99.90;;;;;;5071822;28;20493;-86
2021/12/29 11:44:49;;;;;;;3.50;1.30;;;8.30;99.90;;;;;;5078946;28;20146;-86
2021/12/29 11:47:16;;;;;;;2.50;1.17;;;8.30;99.90;;;;;;5062703;28;20119;-86
2021/12/29 11:49:42;;;;;;;2.50;0.57;;;8.30;99.90;;;;;;5059244;28;20032;-86
2021/12/29 11:52:42;;;;;;;2.20;1.45;;;8.30;99.90;;;;;;5078169;28;20040;-86
2021/12/29 11:55:21;;;;;;;1.08;0.98;;;8.30;99.90;;;;;;5075671;28;20521;-86
2021/12/29 11:57:46;;;;;;;2.75;1.70;;;8.30;99.90;;;;;;5065770;28;20040;-86
2021/12/29 12:00:29;;;;;;;7.43;1.50;;;8.30;99.90;;;;;;5067127;28;20097;-86
2021/12/29 12:03:12;;;;;;;8.57;0.63;;;8.30;99.90;;;;;;5058440;28;20048;-86
2021/12/29 12:05:48;;;;;;;0.25;0.25;;;8.30;99.90;;;;;;5058489;28;20036;-86
2021/12/29 12:08:24;;;;;;;50.40;4.97;;;8.30;99.90;;;;;;5087661;28;20039;-86
2021/12/29 12:10:51;;;;;;;1.13;1.02;;;8.30;99.90;;;;;;5065290;28;20043;-86
2021/12/29 12:13:26;;;;;;;5.32;1.10;;;8.20;99.90;;;;;;5079767;28;20081;-86
2021/12/29 12:16:14;;;;;;;14.25;1.20;;;8.20;99.90;;;;;;5057986;28;20047;-86
2021/12/29 12:18:51;;;;;;;1.00;0.77;;;8.30;99.90;;;;;;5064670;28;20508;-86
2021/12/29 12:21:29;;;;;;;7.45;0.80;;;8.30;99.90;;;;;;5058303;28;20040;-86
2021/12/29 12:24:08;;;;;;;0.60;0.55;;;8.30;99.90;;;;;;5058276;28;20082;-86
2021/12/29 12:26:34;;;;;;;0.17;0.17;;;8.30;99.90;;;;;;5091253;28;20040;-86
2021/12/29 12:29:20;;;;;;;1.88;1.38;;;8.30;99.90;;;;;;5074023;28;20031;-86
2021/12/29 12:32:06;;;;;;;0.57;0.50;;;8.20;99.90;;;;;;5075000;28;20117;-85
2021/12/29 12:34:33;;;;;;;;;;;8.30;99.90;;;;;;5088560;28;20032;-86
2021/12/29 12:37:00;;;;;;;2.00;1.80;;;8.20;99.90;;;;;;5070517;28;19974;-85
2021/12/29 12:39:27;;;;;;;0.43;0.38;;;8.20;99.90;;;;;;5074219;28;20396;-86
2021/12/29 12:41:59;;;;;;;2.65;1.88;;;8.20;99.90;;;;;;5080207;28;20059;-85
2021/12/29 12:44:37;;;;;;;2.03;1.85;;;8.20;99.90;;;;;;5058645;28;20036;-86
2021/12/29 12:47:14;;;;;;;0.30;0.30;;;8.20;99.90;;;;;;5057982;28;20405;-86
2021/12/29 12:49:53;;;;;;;2.92;0.40;;;8.20;99.90;;;;;;5058183;28;20039;-86
2021/12/29 12:52:39;;;;;;;0.25;0.25;;;8.20;99.90;;;;;;5074913;28;20047;-85
2021/12/29 12:55:11;;;;;;;0.98;0.47;;;8.20;99.90;;;;;;5058224;28;20075;-86
2021/12/29 12:57:44;;;;;;;0.28;0.28;;;8.20;99.90;;;;;;5074486;28;20038;-85
2021/12/29 13:00:15;;;;;;;0.85;0.68;;;8.20;99.90;;;;;;5072316;28;20096;-85
2021/12/29 13:03:13;;;;;;;1.10;0.85;;;8.20;99.90;;;;;;5060241;28;20036;-86
2021/12/29 13:05:41;;;;;;;1.20;1.05;;;8.20;99.90;;;;;;5059828;28;20044;-86
2021/12/29 13:08:24;;;;;;;3.22;0.93;;;8.10;99.90;;;;;;5058274;28;20088;-85
2021/12/29 13:10:55;;;;;;;0.70;0.52;;;8.20;99.90;;;;;;5060593;28;20034;-86